Aviation Digital Data Service (ADDS)

Output produced by METARs form (0957 UTC 19 January 2019)
found at http://www.aviationweather.gov/metar/data/
 
LFLB 190930Z AUTO 16001KT CAVOK 01/M01 Q1016 NOSIG
TAF AMD LFLB 190654Z 1906/2006 18004KT 6000 NSC 
     TEMPO 1906/1909 0400 FZFG 
     PROB40 
     TEMPO 1906/1909 BKN030 
     BECMG 1909/1911 CAVOK 
     PROB40 
     TEMPO 2003/2006 3000 BR
       
LFBZ 190930Z AUTO 19003KT 130V250 9999 FEW045 BKN058 OVC082 10/07 Q1014 NOSIG
TAF LFBZ 190500Z 1906/2006 21005KT 9999 BKN060 
     PROB30 
     TEMPO 1906/1908 4000 -SHRA BKN014 BKN020TCU 
     TEMPO 1919/2002 -RA BKN025 
     TEMPO 2003/2006 4000 SHRA BKN025TCU
       
LFRT 190930Z AUTO 23004KT 190V260 9999 BKN038 OVC045 06/05 Q1007
LFRM 190930Z AUTO VRB02KT 3500 BR OVC003 03/03 Q1010 TEMPO SHRA BECMG BKN008 BKN020
TAF AMD LFRM 190743Z 1907/2006 12005KT 9999 BKN008 BKN020 
     TEMPO 1908/1910 3000 BR BKN003 
     TEMPO 1909/2006 4000 SHRA
       
LFLW 190930Z AUTO 11003KT 9999 OVC021 01/M01 Q1013 NOSIG
TAF LFLW 190800Z 1909/1918 11005KT 9999 SCT015 BKN025 
     BECMG 1916/1918 4000 -RA OVC010
       
LFLC 190930Z AUTO 14005KT 090V230 9999 FEW062 SCT160 00/M04 Q1013 NOSIG
TAF LFLC 190800Z 1909/2009 18007KT 9999 FEW040 
     BECMG 1912/1914 SCT040 BKN080 
     BECMG 2003/2005 RA SCT020 OVC030
       
LFOA 190930Z AUTO 13007KT 6000 -SN SCT015 BKN024 BKN031 M00/M01 Q1012
LFSB 190930Z VRB02KT CAVOK M01/M04 Q1016 NOSIG
TAF AMD LFSB 190728Z 1907/2006 VRB03KT 6000 NSC 
     FM191100 32003KT CAVOK 
     BECMG 2001/2004 BKN014 
     PROB40 
     TEMPO 2004/2006 1200 -SN BKN005
       
LFQB 190930Z AUTO 14006KT CAVOK M02/M03 Q1014
LFBL 190930Z AUTO 17008KT 140V200 5000 -RADZ BR OVC002/// ///TCU 03/03 Q1011 TEMPO 2000 -RADZ OVC002
TAF LFBL 190500Z 1906/2006 16007KT 4000 BR OVC004 
     TEMPO 1906/2006 2000 -RADZ OVC002 
     PROB40 
     TEMPO 1906/1909 0700 FG VV///
       
LFBI 190930Z AUTO 18010KT 9000 OVC004 06/06 Q1011 TEMPO 1500 -RADZ
TAF LFBI 190500Z 1906/2006 18006KT 9999 BKN010 
     TEMPO 1906/2006 1500 -RADZ OVC003
       
LFBO 190930Z AUTO 18004KT 9999 BKN024 OVC030 03/02 Q1015 NOSIG
TAF LFBO 190500Z 1906/2012 15006KT 6000 SCT020 BKN040 
     TEMPO 1906/1910 1200 BCFG BKN001 
     PROB30 
     TEMPO 1906/1909 0700 FG VV/// 
     BECMG 2000/2002 VRB03KT 
     TEMPO 2006/2010 4000 -RA BKN014 
     BECMG 2010/2012 28008KT
       
LFMH 190930Z AUTO 15009KT CAVOK M00/M05 Q1014 NOSIG
TAF LFMH 190800Z 1909/2009 VRB02KT CAVOK 
     BECMG 1915/1918 SCT040 OVC060 
     BECMG 1921/1923 20012KT
       
LFAQ 190930Z AUTO 14012KT 9000 NSC M01/M03 Q1012 NOSIG
TAF LFAQ 190800Z 1909/1918 13010KT CAVOK 
     TEMPO 1915/1918 3000 SN OVC008
       
LFOJ 190930Z AUTO 15008KT 2500 -DZ BR OVC009/// ///TCU 00/M01 Q1010
LFBU 190930Z AUTO 16007KT 140V200 3300 BR OVC002 06/06 Q1012 TEMPO OVC006
TAF AMD LFBU 190948Z 1909/2006 17008KT 9999 BKN015 
     TEMPO 1909/1913 4000 -RA OVC006 
     PROB40 
     TEMPO 1909/1912 3000 BR OVC002 
     TEMPO 1920/2006 4000 -RA OVC005
       
LFLY 190930Z AUTO VRB02KT 0550 R34/0900U FZFG VV/// M03/M04 Q1016 BECMG CAVOK
TAF AMD LFLY 190841Z 1908/2006 VRB02KT 0400 FZFG VV/// 
     BECMG 1910/1912 CAVOK 
     BECMG 1921/1924 19005KT 
     BECMG 2003/2006 BKN040
       
LFKJ 190930Z AUTO 02003KT CAVOK 08/05 Q1014 NOSIG
TAF LFKJ 190800Z 1909/2009 06006KT 9999 FEW040 BKN250 
     BECMG 1910/1912 22005KT 
     TEMPO 1909/1921 BKN035 BKN100
       
LFMO 190930Z AUTO 00000KT CAVOK 03/M01 Q1015 NOSIG
TAF LFMO 190800Z 1909/2009 VRB02KT CAVOK 
     TEMPO 1922/2003 3000 BR 
     BECMG 2007/2009 5000 -RA
       
LFRK 190930Z AUTO 13006KT 9999 OVC007/// ///TCU 03/02 Q1009 TEMPO OVC007
TAF LFRK 190800Z 1909/1918 16010KT 9999 BKN015 
     TEMPO 1909/1918 OVC007 
     TEMPO 1914/1918 4000 SHRA BKN005 BKN015TCU 
     BECMG 1916/1918 19005KT
       
LFMV 190930Z AUTO 01005KT CAVOK 02/M02 Q1015 NOSIG
TAF LFMV 190800Z 1909/2009 VRB05KT CAVOK 
     TEMPO 1921/2007 4000 BR 
     BECMG 2000/2002 BKN014
       
LFBC 190930Z AUTO 18004KT 9999 FEW027/// ///TCU 09/08 Q1012
LFLU 190930Z AUTO VRB02KT 9999 SCT060 01/M02 Q1015
LFPG 190930Z 13012KT CAVOK M01/M03 Q1012 NOSIG
TAF AMD LFPG 190934Z 1909/2012 12005KT CAVOK TX02/1914Z TNM00/1910Z 
     BECMG 1911/1914 BKN007 
     PROB40 
     TEMPO 1911/1916 4000 -SNRA BKN003 
     PROB30 
     TEMPO 1911/1913 -FZRA 
     PROB30 
     TEMPO 1911/1916 2000 -SN BKN002 
     BECMG 1917/1920 4000 DZRA BKN003 
     PROB30 
     TEMPO 1917/1921 2000 -RASN 
     TEMPO 2008/2012 1500 -DZRA BKN002
       
LFBG 190930Z AUTO 16005KT 100V200 5000 BR OVC003/// ///TCU 07/07 Q1012
LFOC 190930Z AUTO 15006KT 6000 OVC004 00/00 Q1011
LFPT 190930Z AUTO 12007KT CAVOK M01/M02 Q1012
LFMN 190930Z 31010KT 9999 BKN063 BKN200 07/M01 Q1014 NOSIG
TAF LFMN 190800Z 1909/2015 34009KT 9999 SCT063 BKN200 
     BECMG 1911/1913 24010KT 
     PROB30 
     TEMPO 1916/1922 4000 RA BKN020 
     BECMG 1919/1921 34008KT 
     BECMG 2011/2013 14010KT
       
LFLX 190930Z AUTO 13003KT 9999 BKN021 BKN027 OVC092 02/02 Q1011 NOSIG
TAF AMD LFLX 190825Z 1908/2012 14008KT 9999 BKN030 
     TEMPO 1908/1909 4000 BR BKN014 
     PROB30 
     TEMPO 1908/1909 2000 -SNRA BKN008 
     TEMPO 1916/2006 3000 -SHRA SCT010 BKN025 
     TEMPO 2006/2012 3000 BR BKN005
       
LFOV 190930Z AUTO 11004KT 0400 FG VV/// 03/03 Q1009
LFST 190930Z AUTO 36003KT 7000 NSC M01/M03 Q1017 NOSIG
TAF LFST 190500Z 1906/2006 35004KT 7000 NSC 
     TEMPO 1906/1910 4000 BR 
     PROB30 
     TEMPO 1906/1910 1500 BCFG BKN002 
     BECMG 1910/1912 CAVOK 
     BECMG 2004/2006 -SN FEW020 BKN040
       
LFSN 190930Z AUTO VRB01KT 0250 0200 R03/0225N FZFG VV/// M05/M05 Q1016
LFOE 190930Z AUTO 11008KT 6000 -FZRA FEW007 BKN024 OVC031 M01/M01 Q1011 TEMPO NSW BKN005
TAF LFOE 190800Z 1909/2009 13005KT 9999 BKN010 BKN015 
     TEMPO 1909/1915 -SN BKN005 
     TEMPO 1915/2009 3000 -RADZ OVC003
       
LFQG 190930Z AUTO 11006KT 9999 BKN028 BKN037 OVC058 M01/M03 Q1013
LFTW 190930Z AUTO 36008KT CAVOK 04/M02 Q1015 NOSIG
TAF LFTW 190800Z 1909/2009 VRB04KT CAVOK 
     BECMG 2000/2002 BKN025 
     TEMPO 2003/2009 SHRA BKN020
       
LFRB 190930Z AUTO 24005KT 9999 SCT023/// SCT040/// ///TCU 07/06 Q1007 TEMPO 4000 SHRA
TAF LFRB 190500Z 1906/2012 27005KT 9999 SCT025 BKN040 OVC070 
     TEMPO 1906/2006 4000 SHRA FEW015TCU BKN025
       
LFGA 190930Z AUTO 00000KT CAVOK M00/M05 Q1016
LFBH 190930Z AUTO 17008KT 9999 ///TCU 08/07 Q1011 TEMPO 3000 SHRA
TAF LFBH 190500Z 1906/2006 17008KT 9999 BKN030 
     TEMPO 1906/1908 16010G20KT 4000 -SHRA BKN005 BKN020TCU 
     TEMPO 1908/1922 3000 SHRA BKN015TCU 
     PROB30 
     TEMPO 1912/1916 TSRA BKN015CB 
     TEMPO 2002/2006 3000 BR
       
LFBA 190930Z AUTO 11007KT 5000 BR OVC014 05/04 Q1014 TEMPO 2000 -RADZ BR BKN006
TAF LFBA 190800Z 1909/1918 15005KT 8000 BKN016 
     TEMPO 1909/1915 2000 -RADZ BR BKN006
       
LFRJ 190930Z AUTO 20006KT 9999 SCT023/// BKN033/// ///TCU 06/06 Q1007
LFRH 190930Z AUTO 00000KT 9999 FEW026/// BKN054/// BKN092/// ///TCU 06/06 Q1008 TEMPO 4000 SHRA
TAF AMD LFRH 190547Z 1906/2006 VRB03KT 6000 BKN035 
     TEMPO 1906/1909 2000 BR 
     PROB30 
     TEMPO 1906/1908 0500 BCFG VV/// 
     TEMPO 1906/1921 4000 SHRA BKN017TCU 
     TEMPO 1923/2006 3000 BR
       
LFRO 190930Z AUTO 00000KT 9999 -RA FEW013/// BKN018/// BKN024/// ///CB 07/07 Q1007 TEMPO 4000 SHRA
TAF LFRO 190500Z 1906/2006 15005KT 9999 FEW030 BKN040 
     TEMPO 1906/2006 4000 SHRA FEW015TCU BKN020
       
LFPB 190930Z AUTO 12006KT CAVOK M00/M03 Q1013 TEMPO 2000 -RASN BECMG BKN012
TAF AMD LFPB 190947Z 1909/2006 12005KT CAVOK 
     BECMG 1911/1914 BKN007 
     PROB40 
     TEMPO 1911/1916 4000 -SNRA BKN003 
     PROB30 
     TEMPO 1911/1913 -FZRA 
     PROB30 
     TEMPO 1911/1916 2000 -SN BKN002 
     BECMG 1917/1920 4000 DZRA BKN003 
     PROB30 
     TEMPO 1917/1921 2000 -RASN
       
LFMC 190930Z AUTO VRB02KT 6000 -RA FEW026 BKN037 OVC046 01/M00 Q1015
LFTH 190930Z AUTO 36003KT CAVOK 07/02 Q1014 TEMPO SHRA BECMG 08010KT
TAF LFTH 190800Z 1909/2009 08010KT 9999 BKN030 
     TEMPO 1911/2009 SHRA
       
LFAT 190930Z AUTO 13010KT CAVOK 00/M02 Q1012 NOSIG
TAF LFAT 190800Z 1909/1918 12010KT CAVOK 
     TEMPO 1915/1918 4000 -SN OVC008 
     PROB40 
     TEMPO 1915/1918 FZDZ
       
LFMI 190930Z AUTO 36007KT CAVOK 05/01 Q1014 NOSIG
TAF LFMI 190800Z 1909/2009 VRB05KT CAVOK 
     BECMG 1922/1924 08010KT BKN014
       
LFRI 190930Z AUTO 16005KT CAVOK 06/06 Q1010 TEMPO SHRA BKN020TCU
TAF LFRI 190500Z 1906/2006 18005KT 0800 BCFG VV/// 
     BECMG 1906/1908 5000 NSW SCT025 BKN060 
     TEMPO 1908/1920 SHRA BKN020TCU 
     BECMG 1922/1924 3000 BR BKN003 
     PROB30 
     TEMPO 2000/2006 0500 FG VV///
       
LFQQ 190930Z AUTO 12009KT CAVOK M00/M02 Q1014 NOSIG
TAF LFQQ 190500Z 1906/2012 15005KT 7000 NSC 
     BECMG 1920/1922 OVC010 
     PROB30 1921/1924 3000 SN 
     TEMPO 2004/2008 1500 BR OVC002 
     BECMG 2008/2010 BKN007 
     BECMG 2010/2012 BKN013
       
LFSD 190930Z AUTO VRB02KT 0300 R35/0400N FZFG VV/// M04/M04 Q1015
LFHP 190930Z AUTO VRB01KT CAVOK M03/M06 Q1012
LFBT 190930Z AUTO 19004KT 9999 BKN041 OVC070 07/04 Q1013 NOSIG
TAF LFBT 190500Z 1906/2006 VRB03KT 9999 BKN050 
     TEMPO 1906/1909 4000 -RA BKN014 
     BECMG 1906/1908 24007KT 
     BECMG 1910/1912 VRB03KT SCT060 
     TEMPO 2003/2006 4000 -RA BKN030
       
LFMD 190930Z AUTO VRB03KT 9999 BKN056 BKN070 OVC080 07/02 Q1014 NOSIG
TAF LFMD 190800Z 1909/2009 VRB04KT 9999 BKN060 
     BECMG 1910/1913 28007KT 
     PROB30 
     TEMPO 1916/1921 4000 RA BKN020 
     BECMG 1919/1921 VRB03KT 
       
LFJR 190930Z AUTO 17004KT 2700 -RA BR OVC002/// ///CB 06/06 Q1010 TEMPO 4000 -SHRA BKN016CB
TAF LFJR 190800Z 1909/1918 16004KT 8000 BKN008 BKN020 
     TEMPO 1909/1910 3000 BR BKN003 
     BECMG 1910/1912 SCT012 BKN016 
     TEMPO 1909/1918 4000 -SHRA BKN016CB
       
LFCR 190930Z AUTO 11003KT 9999 OVC028 02/01 Q1013 NOSIG
TAF LFCR 190500Z 1906/2006 12006KT 6000 BKN016 
     TEMPO 1906/1909 1500 BCFG BKN003 
     TEMPO 1910/1916 20006KT 
     BECMG 1920/1922 CAVOK
       
LFRC 190930Z AUTO 17010KT 0750 0550 R28/1500N FG OVC002 04/03 Q1007 TEMPO 4000 SHRA BKN005 BKN015TCU
TAF AMD LFRC 190902Z 1909/1918 16010KT 4000 BR OVC005 
     TEMPO 1909/1915 2000 BR BKN002 
     PROB40 
     TEMPO 1909/1911 0800 FG VV/// 
     TEMPO 1909/1918 4000 SHRA BKN005 BKN015TCU 
     BECMG 1915/1917 17005KT 9999 BKN015
       
LFCK 190930Z AUTO 17002KT 9999 FEW045 SCT072 BKN086 04/03 Q1015 NOSIG
TAF LFCK 190800Z 1909/1918 VRB03KT CAVOK
       
LFMT 190930Z AUTO VRB03KT CAVOK 05/M04 Q1015 NOSIG
TAF LFMT 190800Z 1909/2009 VRB04KT CAVOK 
     BECMG 1922/1924 02010KT 
     BECMG 2000/2002 BKN025 
     TEMPO 2002/2009 SHRA BKN020
       
LFBD 190930Z AUTO 18006KT 9999 BKN044/// BKN058/// BKN084/// ///TCU 07/07 Q1012 TEMPO 3000 SHRA
TAF AMD LFBD 190610Z 1906/2012 19006KT 9999 BKN030 TX11/1915Z TN06/1906Z 
     TEMPO 1906/1909 3000 SHRA BKN003 BKN020TCU 
     TEMPO 1909/1916 3000 SHRA BKN015TCU 
     PROB30 
     TEMPO 1912/1916 TSRA BKN015CB 
     TEMPO 2000/2010 4000 -RA BKN005 BKN030
       
LFJL 190930Z AUTO 11006KT CAVOK M02/M04 Q1015 NOSIG
TAF LFJL 190500Z 1906/2006 11008KT CAVOK 
     PROB30 
     TEMPO 1909/1912 SCT010 
     BECMG 2000/2002 4000 -SN BKN020 
     PROB40 
     TEMPO 2003/2006 1200 SN BKN002 OVC008
       
LFRV 190930Z AUTO 18002KT 9999 FEW016 SCT044 BKN098 06/06 Q1008
LFLP 190930Z AUTO VRB02KT CAVOK 00/M04 Q1015 NOSIG
TAF LFLP 190800Z 1909/2009 VRB03KT CAVOK 
     PROB30 
     TEMPO 2003/2009 0600 BCFG
       
LFSG 190930Z AUTO VRB02KT 3500 BR SCT001 M06/M07 Q1015
LFBM 190930Z AUTO 21005KT 190V250 CAVOK 08/06 Q1014 TEMPO 4000 SHRA SCT020TCU
TAF LFBM 190800Z 1909/2009 22005KT 9999 SCT020 BKN040 
     TEMPO 1909/1915 4000 SHRA SCT020TCU 
     PROB30 
     TEMPO 2006/2009 4000 BR BKN005
       
LFRZ 190930Z AUTO 22004KT 9999 FEW025 08/08 Q1009 TEMPO SHRA BKN020TCU
TAF LFRZ 190500Z 1906/2006 VRB03KT 5000 SCT025 BKN080 
     TEMPO 1906/1920 SHRA BKN020TCU 
     BECMG 2001/2003 3000 BR BKN002
       
LFRS 190930Z AUTO 19007KT CAVOK 07/07 Q1009 TEMPO 4000 SHRA BKN018TCU
TAF LFRS 190500Z 1906/2012 VRB04KT 0500 FG VV/// 
     BECMG 1906/1907 6000 NSW SCT002 SCT025 BKN060 
     TEMPO 1907/1921 4000 SHRA BKN018TCU 
     BECMG 1922/1924 3000 BR BKN003 
     TEMPO 2000/2009 0500 FG VV///
       
LFSO 190930Z AUTO VRB01KT 8000 NSC M03/M04 Q1014
LFOH 190930Z AUTO 12010KT 9999 FEW006 SCT010 BKN016 01/M00 Q1009 TEMPO 4000 -SN BKN030 SCT030TCU
TAF AMD LFOH 190805Z 1908/2006 15013KT 9999 BKN030 SCT030TCU 
     TEMPO 1908/1912 4000 -SN 
     PROB40 
     TEMPO 1908/1912 FZDZ 
     BECMG 1911/1913 OVC010 
     TEMPO 1917/2006 2000 DZ OVC002
       
LFPO 190930Z 14006KT 110V170 CAVOK M01/M02 Q1012 NOSIG
TAF AMD LFPO 190722Z 1907/2012 13004KT CAVOK 
     TEMPO 1910/1915 4000 RASN BKN012 
     PROB30 
     TEMPO 1910/1913 2000 -FZRA BKN007 
     TEMPO 1915/2012 4000 -RA BKN008 
     PROB40 
     TEMPO 1922/2012 2000 -DZRA OVC005
       
LFBP 190930Z AUTO 16003KT 9999 SCT041 BKN047 OVC054 07/05 Q1014 NOSIG
TAF LFBP 190500Z 1906/2006 18005KT 9999 BKN040 
     PROB30 
     TEMPO 1906/1909 4000 -RA 
     TEMPO 1912/1921 CAVOK 
     TEMPO 1923/2006 4000 -RA BKN030
       
LFRD 190930Z AUTO 18008KT 4700 BR OVC003 05/05 Q1008 BECMG 9999 NSW BKN030
TAF LFRD 190500Z 1906/2006 17010KT 4000 BR OVC006 
     TEMPO 1906/1910 2000 BR BKN002 
     BECMG 1910/1912 9999 NSW BKN030 
     BECMG 1912/1914 23010KT 
     TEMPO 1912/2003 4000 SHRA BKN015CB 
     BECMG 1922/1924 VRB05KT 
     PROB30 
     TEMPO 2003/2006 5000 SHRA BKN015
       
LFRU 190930Z AUTO 20005KT 150V240 9999 FEW015/// SCT023/// BKN029/// ///CB 07/06 Q1007
LFRQ 190930Z AUTO VRB03KT 9000 FEW003/// BKN054/// BKN074/// ///TCU 04/04 Q1008 TEMPO 4000 SHRA BECMG BKN008 BKN015 OVC040
TAF LFRQ 190500Z 1906/2006 VRB03KT 2000 BR BKN008 BKN015 OVC040 
     TEMPO 1906/1908 0300 FG BKN003 
     TEMPO 1908/2006 4000 SHRA FEW015TCU BKN025
       
LFKB 190930Z AUTO 21004KT 180V250 CAVOK 10/01 Q1014 BECMG 34010KT
TAF LFKB 190800Z 1909/2009 23008KT 9999 FEW030 BKN220 TX13/1913Z TN04/2005Z 
     BECMG 1909/1911 34010KT 
     TEMPO 1912/1921 SCT035 BKN090 
     BECMG 1917/1918 23006KT
       
LFRL 190930Z AUTO 24004KT 9999 SCT024 SCT054 08/07 Q1007
LFML 190930Z AUTO VRB01KT CAVOK 05/00 Q1015 NOSIG
TAF LFML 190800Z 1909/2015 VRB05KT CAVOK TX11/2015Z TN03/2005Z 
     BECMG 1922/1924 09010KT BKN014 
     BECMG 2010/2012 BKN020
       
LFQA 190930Z AUTO 13003KT CAVOK M02/M03 Q1014
LFMP 190930Z AUTO 00000KT 9999 BKN092/// 07/03 Q1015 NOSIG
TAF LFMP 190800Z 1909/2009 VRB04KT 9999 FEW050 
     TEMPO 1913/1917 12010KT 
     BECMG 2003/2005 32010KT
       
LFSI 190930Z AUTO 11007KT CAVOK M02/M05 Q1014
TAF LFSI 190800Z 1909/2009 VRB02KT CAVOK 
     BECMG 1921/1923 2000 SN BKN005 OVC012
       
LFBE 190930Z AUTO 12003KT 070V220 9999 OVC008 06/05 Q1013 TEMPO 3000 -RA
TAF LFBE 190500Z 1906/2006 16005KT 9999 BKN020 
     PROB40 1906/1918 3000 -RA OVC007 
     PROB40 2002/2006 3000 -RA BKN007
       
LFKC 190930Z AUTO VRB02KT 9999 BKN032 BKN050 BKN072 09/04 Q1014 TEMPO RA
TAF LFKC 190800Z 1909/2009 19005KT 9999 FEW060 BKN250 TX12/1913Z TN03/2006Z 
     BECMG 1909/1911 SCT040 BKN090 
     TEMPO 1909/1915 7000 RA BKN025 BKN050 
     TEMPO 1911/1916 36010KT
       
LFLL 190930Z VRB03KT 0300 R35L/0400U R17R/0375N R35R/0350N R17L/0375N FZFG VV/// M03/M03 Q1015 NOSIG
TAF AMD LFLL 190904Z 1909/2012 VRB02KT 0300 FZFG VV/// 
     BECMG 1910/1912 6000 NSW FEW006 
     BECMG 1920/1922 16007KT 
     TEMPO 2008/2012 -RA BKN015
       
LFLS 190930Z AUTO VRB03KT 0350 R09/0550U R27/0500N FZFG VV/// M02/M03 Q1014 BECMG CAVOK
TAF AMD LFLS 190920Z 1909/2009 VRB02KT 0300 FZFG VV/// 
     BECMG 1911/1913 8000 NSW SCT014
       
LFSX 190930Z AUTO 07003KT CAVOK M00/M03 Q1015
LFLN 190930Z AUTO 00000KT CAVOK M02/M03 Q1014 BECMG 18010KT
TAF LFLN 190800Z 1909/1918 00000KT 7000 NSC 
     BECMG 1910/1912 18010KT CAVOK
       
LFMY 190930Z AUTO 00000KT CAVOK 06/M00 Q1014
LFMK 190930Z AUTO 00000KT CAVOK 03/02 Q1015 NOSIG
TAF LFMK 190800Z 1909/2009 28005KT 9999 FEW040 
     BECMG 1916/1918 09010KT 
     BECMG 2000/2002 BKN015
       
LFKS 190930Z AUTO 27004KT 240V300 CAVOK 10/02 Q1013
LFRG 190930Z AUTO 15009KT 9999 BKN011 OVC034 02/01 Q1009 TEMPO 4000 RA OVC007
TAF LFRG 190800Z 1909/1918 14010KT 9999 BKN030 
     TEMPO 1909/1911 4000 RA BKN005 
     PROB30 
     TEMPO 1909/1911 FZRA 
     BECMG 1909/1911 OVC012 
     TEMPO 1911/1918 OVC007 
     TEMPO 1915/1918 4000 SHRA BKN005 BKN015TCU 
     BECMG 1916/1918 14005KT
       
LFRN 190930Z AUTO 13004KT 1000 0450 R28L/0600U R10R/1500U BCFG VV/// 05/05 Q1008 TEMPO 4000 SHRA BKN005 BKN015TCU
TAF AMD LFRN 190851Z 1908/2006 VRB05KT 4000 BR BKN006 
     TEMPO 1909/1912 2000 BR BKN002 
     PROB40 
     TEMPO 1909/1911 0500 FG VV/// 
     PROB30 
     TEMPO 1909/1914 4000 SHRA BKN005 BKN015TCU 
     BECMG 1912/1914 BKN030 
     TEMPO 1914/1924 4000 SHRA BKN015TCU 
     PROB30 
     TEMPO 2000/2003 5000 SHRA 
     TEMPO 2000/2006 3000 BR
       
LFKF 190930Z AUTO 25009KT CAVOK 12/04 Q1014 NOSIG
TAF LFKF 190800Z 1909/2009 26008KT 9999 FEW040 BKN250 
     TEMPO 1915/1924 SCT040 BKN080 
     TEMPO 1921/2009 05006KT
       
LFGJ 190930Z AUTO 18003KT 160V220 0700 R05/1000U FZFG VV/// M03/M04 Q1016 BECMG 3000 BR BKN008
TAF AMD LFGJ 190951Z 1909/1918 VRB03KT 0700 FZFG OVC002 
     BECMG 1910/1912 3000 BR BKN008 
     BECMG 1912/1915 CAVOK
       
LFOB 190930Z AUTO 12007KT 9999 FEW009 SCT150 M01/M02 Q1012 TEMPO 4000 SN OVC005
TAF AMD LFOB 190820Z 1908/2006 13007KT CAVOK 
     BECMG 1912/1914 OVC010 
     TEMPO 1911/1920 4000 SN OVC005 
     PROB40 
     TEMPO 1914/1920 FZDZ 
     TEMPO 1920/2006 1500 DZRA OVC002 
     PROB30 
     TEMPO 1921/2006 0200 FG VV///
       
LFPN 190930Z AUTO 13010KT 9999 FEW043 BKN072 BKN150 M01/M03 Q1011 TEMPO 1200 SN BKN003
TAF LFPN 190800Z 1909/1918 13005KT CAVOK 
     BECMG 1909/1911 BKN020 
     TEMPO 1909/1911 1200 SN BKN003 
     PROB40 
     TEMPO 1910/1913 -FZRA 
     TEMPO 1913/1918 3000 RA BKN005
       
LFOT 190930Z AUTO 14005KT 1300 1100 R20/2200U BR VV/// 03/03 Q1010 TEMPO 1500 -RADZ BKN002
TAF AMD LFOT 190918Z 1909/2006 13008KT 6000 BKN007 
     TEMPO 1909/1913 4000 BR BKN003 
     PROB30 
     TEMPO 1909/1913 1500 -RADZ VV/// 
     BECMG 1913/1915 BKN015 
     TEMPO 1915/1924 3000 SHRA BKN012 
     BECMG 2000/2002 4000 BR BKN007 
     PROB30 
     TEMPO 2003/2006 OVC004
       
LFOP 190930Z AUTO 12009KT 9999 FEW008 SCT040 BKN052 M01/M02 Q1010 TEMPO 2000 FZDZ OVC004
TAF LFOP 190500Z 1906/2006 13010KT CAVOK 
     BECMG 1906/1908 OVC010 
     TEMPO 1908/1917 2000 FZDZ OVC004 
     BECMG 1917/1919 OVC002 
     TEMPO 1919/2006 2000 DZ 
     PROB40 
     TEMPO 1919/2006 0200 FG VV///
       
LFOK 190930Z AUTO 14011KT CAVOK M01/M02 Q1014 NOSIG
TAF LFOK 190500Z 1906/2006 13005KT CAVOK 
     BECMG 1916/1918 OVC010 
     TEMPO 1918/1922 1500 SN OVC003 
     TEMPO 1922/2006 1500 DZ OVC003 
     PROB30 1922/2006 FZDZ
       
LFPV 190930Z AUTO 14008KT CAVOK M01/M03 Q1011 BECMG BKN003
TAF LFPV 190800Z 1909/2009 12006KT 9999 SCT005 
     BECMG 1910/1912 BKN003 
     TEMPO 1912/1915 3000 RASN 
     TEMPO 1915/2009 2000 RADZ BKN002
       
LFMU 190930Z AUTO 24003KT CAVOK 05/02 Q1015 NOSIG
TAF LFMU 190800Z 1909/2009 32005KT CAVOK 
     TEMPO 1913/1918 18010KT 
     BECMG 1919/1922 02010KT BKN025
       
LFPM 190930Z AUTO 12009KT CAVOK M01/M02 Q1012